Grande Mariner — WCY6594 — position and weather

sailwx.info

Track history (hours):
 
Tides and Currents Weather Stations Pressure Air Temp Water Temp Dewpoint Dewpoint Depression Visibility Wind Speed Wind Dir Waves Ship Positions

Grande Mariner

Owner: AMERICAN CANADIAN CARIBBEAN LINE INC, WARREN, RI. More information available from US FCC via Universal Licensing System and Coast Guard Vessel Documentation Center.

Last reported at 2016-Jun-28 12:22 UTC. Time now 2016-Jun-29 16:36 UTC.
Position N 40°48' W 073°59'.

Length 56 m; draft 2 m.

Type: Passenger vessel. MMSI: 369024000.

Date/timePositionNaut miles runAvg speedWind from/ knotsBaromVisibWave heightAir tempDewpointWater temp
2016-Jun-28 12:22N 40°48' W 073°59'6 8.0
2016-Jun-28 11:33N 40°42' W 074°02'71 8.9
2016-Jun-28 03:33N 41°09' W 072°35'8 8.5
2016-Jun-28 02:33N 41°11' W 072°24'57 8.0
2016-Jun-27 19:28N 41°39' W 071°19'5 0.2
2016-Jun-26 13:09N 41°43' W 071°17'4 6.2
2016-Jun-26 12:33N 41°40' W 071°19'9 8.9
2016-Jun-26 11:32N 41°31' W 071°20'  
2016-Jun-21 07:33N 41°40' W 071°17'0 0.2
2016-Jun-21 06:33N 41°40' W 071°16'0 0.0
2016-Jun-21 04:33N 41°40' W 071°16'0 0.0
2016-Jun-21 03:33N 41°40' W 071°16'0 0.0
2016-Jun-21 02:33N 41°40' W 071°16'0 0.0
2016-Jun-21 01:30N 41°40' W 071°16'0 0.0
2016-Jun-21 00:28N 41°40' W 071°16'0 0.0
2016-Jun-20 23:31N 41°40' W 071°16'0 0.0
2016-Jun-20 22:32N 41°40' W 071°16'3 3.2
2016-Jun-20 21:33N 41°43' W 071°17'0 0.0
2016-Jun-19 12:22N 41°43' W 071°17'8 9.2
2016-Jun-19 11:33N 41°35' W 071°18'30 6.9
2016-Jun-19 07:16N 41°16' W 071°49'6 7.5
2016-Jun-19 06:28N 41°15' W 071°56'8 9.2
2016-Jun-19 05:33N 41°14' W 072°08'1010.0
2016-Jun-19 04:33N 41°12' W 072°21'10 9.6
2016-Jun-19 03:33N 41°09' W 072°33'9 8.9
2016-Jun-19 02:33N 41°07' W 072°44'59 8.4
2016-Jun-18 19:31N 40°46' W 073°57'6 6.5
2016-Jun-18 18:33N 40°41' W 074°02'  
Track history (hours):
 
Tides and Currents Weather Stations Pressure Air Temp Water Temp Dewpoint Dewpoint Depression Visibility Wind Speed Wind Dir Waves Ship Positions

Grande Mariner

Owner: AMERICAN CANADIAN CARIBBEAN LINE INC, WARREN, RI. More information available from US FCC via Universal Licensing System and Coast Guard Vessel Documentation Center.

Last reported at 2016-Jun-28 12:22 UTC. Time now 2016-Jun-29 16:36 UTC.
Position N 40°48' W 073°59'.

Length 56 m; draft 2 m.

Type: Passenger vessel. MMSI: 369024000.

Date/timePositionNaut miles runAvg speedWind from/ knotsBaromVisibWave heightAir tempDewpointWater temp
2016-Jun-28 12:22N 40°48' W 073°59'6 8.0
2016-Jun-28 11:33N 40°42' W 074°02'71 8.9
2016-Jun-28 03:33N 41°09' W 072°35'8 8.5
2016-Jun-28 02:33N 41°11' W 072°24'57 8.0
2016-Jun-27 19:28N 41°39' W 071°19'5 0.2
2016-Jun-26 13:09N 41°43' W 071°17'4 6.2
2016-Jun-26 12:33N 41°40' W 071°19'9 8.9
2016-Jun-26 11:32N 41°31' W 071°20'  
2016-Jun-21 07:33N 41°40' W 071°17'0 0.2
2016-Jun-21 06:33N 41°40' W 071°16'0 0.0
2016-Jun-21 04:33N 41°40' W 071°16'0 0.0
2016-Jun-21 03:33N 41°40' W 071°16'0 0.0
2016-Jun-21 02:33N 41°40' W 071°16'0 0.0
2016-Jun-21 01:30N 41°40' W 071°16'0 0.0
2016-Jun-21 00:28N 41°40' W 071°16'0 0.0
2016-Jun-20 23:31N 41°40' W 071°16'0 0.0
2016-Jun-20 22:32N 41°40' W 071°16'3 3.2
2016-Jun-20 21:33N 41°43' W 071°17'0 0.0
2016-Jun-19 12:22N 41°43' W 071°17'8 9.2
2016-Jun-19 11:33N 41°35' W 071°18'30 6.9
2016-Jun-19 07:16N 41°16' W 071°49'6 7.5
2016-Jun-19 06:28N 41°15' W 071°56'8 9.2
2016-Jun-19 05:33N 41°14' W 072°08'1010.0
2016-Jun-19 04:33N 41°12' W 072°21'10 9.6
2016-Jun-19 03:33N 41°09' W 072°33'9 8.9
2016-Jun-19 02:33N 41°07' W 072°44'59 8.4
2016-Jun-18 19:31N 40°46' W 073°57'6 6.5
2016-Jun-18 18:33N 40°41' W 074°02'  

Dump ship's entire track history